aviador You're here:

OPRN Decoded Metar

ISLAMABAD in PAKISTAN
Report Time2018-07-22 06:30:00
UTC Time2018-07-22 07:13:46
Flight Rules mvfr MVFR
Wind130° at 14 kt
W.Decomp.*RWY 12: 13.9 kt HW 1.9 kt RCW
W.Rank130° ranks 2
Current wind is above 130° avg. (8.8)
Visibility7000 m
Phenomena:N/A
Clouds:Broken 030 Hf
Scattered 050 Hf
Expected CloudBase > 2,800 ft AGL from Temp-Dew spread
Ceiling3,000 ft
Temp33°C (ISA +21)
Dew Point26°C (67% RH)
Heat Index42.2°C
QNH1002 hPa
Density Alt4,908 ft
Elevation1,667 ft
Report Wrong Elevation
Raw Report
OPRN 220630Z 13014KT 7000 BKN030 SCT050 33/26 Q1002 NOSIG RMK
A2960=

Extra information for OPRN:More info

Metar Taf Metar & Taf Last 4 Metars F.Rules Stats Wind Profile Meteogram Temp Stats Airport Information Weather charts Add Link Nearby VenuesMetar ALERT Operation Metar Decoded Social comments